sensor_id;sensor_type;location;lat;lon;timestamp;P1;durP1;ratioP1;P2;durP2;ratioP2
74644;SDS011;63163;55.630;37.594;2023-05-19T00:00:41;7.7;;;4.3;;
74644;SDS011;63163;55.630;37.594;2023-05-19T00:01:44;6.4;;;4.5;;
74644;SDS011;63163;55.630;37.594;2023-05-19T00:02:47;6.3;;;4.6;;
74644;SDS011;63163;55.630;37.594;2023-05-19T00:03:48;5.3;;;4.2;;
74644;SDS011;63163;55.630;37.594;2023-05-19T00:04:51;6.0;;;4.0;;
74644;SDS011;63163;55.630;37.594;2023-05-19T00:05:52;5.2;;;4.0;;
74644;SDS011;63163;55.630;37.594;2023-05-19T00:06:53;6.9;;;3.9;;
74644;SDS011;63163;55.630;37.594;2023-05-19T00:07:54;4.7;;;3.5;;
74644;SDS011;63163;55.630;37.594;2023-05-19T00:08:58;5.1;;;4.0;;
74644;SDS011;63163;55.630;37.594;2023-05-19T00:09:59;6.8;;;3.5;;
74644;SDS011;63163;55.630;37.594;2023-05-19T00:11:00;4.6;;;3.5;;
74644;SDS011;63163;55.630;37.594;2023-05-19T00:12:01;4.2;;;3.0;;
74644;SDS011;63163;55.630;37.594;2023-05-19T00:13:01;4.9;;;3.0;;
74644;SDS011;63163;55.630;37.594;2023-05-19T00:14:03;3.8;;;2.8;;
74644;SDS011;63163;55.630;37.594;2023-05-19T00:15:05;5.7;;;3.0;;
74644;SDS011;63163;55.630;37.594;2023-05-19T00:16:06;4.7;;;3.0;;
74644;SDS011;63163;55.630;37.594;2023-05-19T00:17:07;5.8;;;3.1;;
74644;SDS011;63163;55.630;37.594;2023-05-19T00:18:08;6.1;;;3.0;;
74644;SDS011;63163;55.630;37.594;2023-05-19T00:19:09;5.7;;;2.6;;
74644;SDS011;63163;55.630;37.594;2023-05-19T00:20:11;4.7;;;3.1;;
74644;SDS011;63163;55.630;37.594;2023-05-19T00:21:12;3.2;;;2.5;;
74644;SDS011;63163;55.630;37.594;2023-05-19T00:22:12;4.2;;;2.7;;
74644;SDS011;63163;55.630;37.594;2023-05-19T00:23:13;4.2;;;2.8;;
74644;SDS011;63163;55.630;37.594;2023-05-19T00:24:14;3.7;;;2.5;;
74644;SDS011;63163;55.630;37.594;2023-05-19T00:25:14;4.9;;;2.6;;
74644;SDS011;63163;55.630;37.594;2023-05-19T00:26:15;3.9;;;2.6;;
74644;SDS011;63163;55.630;37.594;2023-05-19T00:27:15;5.2;;;2.5;;
74644;SDS011;63163;55.630;37.594;2023-05-19T00:28:16;5.4;;;2.5;;
74644;SDS011;63163;55.630;37.594;2023-05-19T00:29:16;5.1;;;2.5;;
74644;SDS011;63163;55.630;37.594;2023-05-19T00:30:18;4.0;;;2.7;;
74644;SDS011;63163;55.630;37.594;2023-05-19T00:31:19;5.4;;;2.5;;
74644;SDS011;63163;55.630;37.594;2023-05-19T00:32:19;4.4;;;2.5;;
74644;SDS011;63163;55.630;37.594;2023-05-19T00:33:20;3.8;;;2.3;;
74644;SDS011;63163;55.630;37.594;2023-05-19T00:34:20;3.0;;;2.4;;
74644;SDS011;63163;55.630;37.594;2023-05-19T00:35:22;3.4;;;2.5;;
74644;SDS011;63163;55.630;37.594;2023-05-19T00:36:23;2.6;;;2.1;;
74644;SDS011;63163;55.630;37.594;2023-05-19T00:37:24;2.6;;;2.0;;
74644;SDS011;63163;55.630;37.594;2023-05-19T00:38:24;3.4;;;2.5;;
74644;SDS011;63163;55.630;37.594;2023-05-19T00:39:25;3.2;;;2.2;;
74644;SDS011;63163;55.630;37.594;2023-05-19T00:40:25;4.4;;;2.3;;
74644;SDS011;63163;55.630;37.594;2023-05-19T00:41:26;3.9;;;2.1;;
74644;SDS011;63163;55.630;37.594;2023-05-19T00:42:27;2.9;;;2.3;;
74644;SDS011;63163;55.630;37.594;2023-05-19T00:43:27;3.3;;;2.4;;
74644;SDS011;63163;55.630;37.594;2023-05-19T00:44:29;3.6;;;2.6;;
74644;SDS011;63163;55.630;37.594;2023-05-19T00:45:30;6.0;;;2.5;;
74644;SDS011;63163;55.630;37.594;2023-05-19T00:46:30;3.8;;;2.4;;
74644;SDS011;63163;55.630;37.594;2023-05-19T00:47:31;3.9;;;2.4;;
74644;SDS011;63163;55.630;37.594;2023-05-19T00:48:32;3.2;;;2.4;;
74644;SDS011;63163;55.630;37.594;2023-05-19T00:49:32;4.5;;;2.6;;
74644;SDS011;63163;55.630;37.594;2023-05-19T00:50:33;4.8;;;2.2;;
74644;SDS011;63163;55.630;37.594;2023-05-19T00:51:33;4.2;;;2.7;;
74644;SDS011;63163;55.630;37.594;2023-05-19T00:52:35;4.2;;;2.0;;
74644;SDS011;63163;55.630;37.594;2023-05-19T00:53:35;3.3;;;2.4;;
74644;SDS011;63163;55.630;37.594;2023-05-19T00:54:36;3.5;;;2.0;;
74644;SDS011;63163;55.630;37.594;2023-05-19T00:55:37;9.5;;;2.2;;
74644;SDS011;63163;55.630;37.594;2023-05-19T00:56:39;2.4;;;1.9;;
74644;SDS011;63163;55.630;37.594;2023-05-19T00:57:40;2.3;;;1.9;;
74644;SDS011;63163;55.630;37.594;2023-05-19T00:58:41;4.1;;;1.9;;
74644;SDS011;63163;55.630;37.594;2023-05-19T00:59:42;6.9;;;5.4;;
74644;SDS011;63163;55.630;37.594;2023-05-19T01:00:43;4.4;;;1.8;;
74644;SDS011;63163;55.630;37.594;2023-05-19T01:01:44;4.5;;;2.7;;
74644;SDS011;63163;55.630;37.594;2023-05-19T01:02:48;2.8;;;1.6;;
74644;SDS011;63163;55.630;37.594;2023-05-19T01:03:49;3.8;;;1.7;;
74644;SDS011;63163;55.630;37.594;2023-05-19T01:04:50;2.1;;;1.4;;
74644;SDS011;63163;55.630;37.594;2023-05-19T01:05:51;3.6;;;1.3;;
74644;SDS011;63163;55.630;37.594;2023-05-19T01:06:53;2.1;;;1.5;;
74644;SDS011;63163;55.630;37.594;2023-05-19T01:07:54;2.6;;;1.8;;
74644;SDS011;63163;55.630;37.594;2023-05-19T01:08:55;2.8;;;1.3;;
74644;SDS011;63163;55.630;37.594;2023-05-19T01:09:56;4.5;;;1.5;;
74644;SDS011;63163;55.630;37.594;2023-05-19T01:10:57;2.7;;;1.6;;
74644;SDS011;63163;55.630;37.594;2023-05-19T01:11:58;4.2;;;1.4;;
74644;SDS011;63163;55.630;37.594;2023-05-19T01:12:59;2.2;;;1.3;;
74644;SDS011;63163;55.630;37.594;2023-05-19T01:13:59;2.1;;;1.3;;
74644;SDS011;63163;55.630;37.594;2023-05-19T01:15:00;2.0;;;1.4;;
74644;SDS011;63163;55.630;37.594;2023-05-19T01:16:03;2.9;;;1.5;;
74644;SDS011;63163;55.630;37.594;2023-05-19T01:17:07;3.1;;;1.5;;
74644;SDS011;63163;55.630;37.594;2023-05-19T01:18:10;3.0;;;1.3;;
74644;SDS011;63163;55.630;37.594;2023-05-19T01:19:14;3.0;;;1.4;;
74644;SDS011;63163;55.630;37.594;2023-05-19T01:20:18;2.9;;;1.5;;
74644;SDS011;63163;55.630;37.594;2023-05-19T01:21:26;2.0;;;1.3;;
74644;SDS011;63163;55.630;37.594;2023-05-19T01:22:39;2.3;;;1.3;;
74644;SDS011;63163;55.630;37.594;2023-05-19T01:23:45;2.4;;;1.4;;
74644;SDS011;63163;55.630;37.594;2023-05-19T01:24:58;3.0;;;1.2;;
74644;SDS011;63163;55.630;37.594;2023-05-19T01:26:08;3.6;;;1.3;;
74644;SDS011;63163;55.630;37.594;2023-05-19T01:27:16;2.0;;;1.3;;
74644;SDS011;63163;55.630;37.594;2023-05-19T01:28:25;1.7;;;1.3;;
74644;SDS011;63163;55.630;37.594;2023-05-19T01:29:37;2.0;;;1.4;;
74644;SDS011;63163;55.630;37.594;2023-05-19T01:30:40;1.6;;;1.2;;
74644;SDS011;63163;55.630;37.594;2023-05-19T01:31:41;1.6;;;1.1;;
74644;SDS011;63163;55.630;37.594;2023-05-19T01:32:43;1.7;;;1.2;;
74644;SDS011;63163;55.630;37.594;2023-05-19T01:33:44;3.1;;;1.1;;
74644;SDS011;63163;55.630;37.594;2023-05-19T01:34:45;2.4;;;1.3;;
74644;SDS011;63163;55.630;37.594;2023-05-19T01:35:48;2.0;;;1.5;;
74644;SDS011;63163;55.630;37.594;2023-05-19T01:36:49;2.8;;;1.3;;
74644;SDS011;63163;55.630;37.594;2023-05-19T01:37:50;2.0;;;1.1;;
74644;SDS011;63163;55.630;37.594;2023-05-19T01:38:53;2.4;;;1.2;;
74644;SDS011;63163;55.630;37.594;2023-05-19T01:39:53;2.1;;;1.2;;
74644;SDS011;63163;55.630;37.594;2023-05-19T01:40:55;2.1;;;1.5;;
74644;SDS011;63163;55.630;37.594;2023-05-19T01:41:56;1.9;;;1.3;;
74644;SDS011;63163;55.630;37.594;2023-05-19T01:42:58;2.8;;;1.5;;
74644;SDS011;63163;55.630;37.594;2023-05-19T01:43:58;2.4;;;1.1;;
74644;SDS011;63163;55.630;37.594;2023-05-19T01:44:59;3.8;;;1.3;;
74644;SDS011;63163;55.630;37.594;2023-05-19T01:46:00;2.9;;;1.2;;
74644;SDS011;63163;55.630;37.594;2023-05-19T01:47:01;2.7;;;1.3;;
74644;SDS011;63163;55.630;37.594;2023-05-19T01:48:03;4.2;;;1.6;;
74644;SDS011;63163;55.630;37.594;2023-05-19T01:49:04;1.6;;;1.3;;
74644;SDS011;63163;55.630;37.594;2023-05-19T01:50:05;2.5;;;1.5;;
74644;SDS011;63163;55.630;37.594;2023-05-19T01:51:06;2.3;;;1.3;;
74644;SDS011;63163;55.630;37.594;2023-05-19T01:52:07;2.3;;;1.3;;
74644;SDS011;63163;55.630;37.594;2023-05-19T01:53:08;2.6;;;1.2;;
74644;SDS011;63163;55.630;37.594;2023-05-19T01:54:08;1.7;;;1.2;;
74644;SDS011;63163;55.630;37.594;2023-05-19T01:55:09;3.3;;;1.3;;
74644;SDS011;63163;55.630;37.594;2023-05-19T01:56:10;3.0;;;1.2;;
74644;SDS011;63163;55.630;37.594;2023-05-19T01:57:15;4.4;;;1.6;;
74644;SDS011;63163;55.630;37.594;2023-05-19T01:58:20;1.8;;;1.4;;
74644;SDS011;63163;55.630;37.594;2023-05-19T01:59:24;2.9;;;1.3;;
74644;SDS011;63163;55.630;37.594;2023-05-19T02:00:29;3.1;;;1.2;;
74644;SDS011;63163;55.630;37.594;2023-05-19T02:01:33;3.1;;;1.6;;
74644;SDS011;63163;55.630;37.594;2023-05-19T02:02:35;3.2;;;1.4;;
74644;SDS011;63163;55.630;37.594;2023-05-19T02:03:46;3.9;;;1.5;;
74644;SDS011;63163;55.630;37.594;2023-05-19T02:04:54;3.3;;;1.4;;
74644;SDS011;63163;55.630;37.594;2023-05-19T02:05:58;1.6;;;1.1;;
74644;SDS011;63163;55.630;37.594;2023-05-19T02:07:02;1.4;;;1.1;;
74644;SDS011;63163;55.630;37.594;2023-05-19T02:08:05;2.2;;;1.1;;
74644;SDS011;63163;55.630;37.594;2023-05-19T02:09:10;1.9;;;0.9;;
74644;SDS011;63163;55.630;37.594;2023-05-19T02:10:13;1.2;;;1.0;;
74644;SDS011;63163;55.630;37.594;2023-05-19T02:11:18;2.2;;;1.1;;
74644;SDS011;63163;55.630;37.594;2023-05-19T02:12:23;1.5;;;1.1;;
74644;SDS011;63163;55.630;37.594;2023-05-19T02:13:26;1.8;;;1.1;;
74644;SDS011;63163;55.630;37.594;2023-05-19T02:14:29;3.2;;;1.0;;
74644;SDS011;63163;55.630;37.594;2023-05-19T02:15:32;1.6;;;1.2;;
74644;SDS011;63163;55.630;37.594;2023-05-19T02:16:34;1.7;;;1.1;;
74644;SDS011;63163;55.630;37.594;2023-05-19T02:17:37;1.8;;;1.2;;
74644;SDS011;63163;55.630;37.594;2023-05-19T02:18:40;1.4;;;1.0;;
74644;SDS011;63163;55.630;37.594;2023-05-19T02:19:44;1.8;;;1.2;;
74644;SDS011;63163;55.630;37.594;2023-05-19T02:20:45;2.8;;;1.4;;
74644;SDS011;63163;55.630;37.594;2023-05-19T02:21:45;2.8;;;1.5;;
74644;SDS011;63163;55.630;37.594;2023-05-19T02:22:46;1.5;;;1.3;;
74644;SDS011;63163;55.630;37.594;2023-05-19T02:23:47;2.5;;;1.3;;
74644;SDS011;63163;55.630;37.594;2023-05-19T02:24:48;2.7;;;1.4;;
74644;SDS011;63163;55.630;37.594;2023-05-19T02:25:50;2.7;;;1.5;;
74644;SDS011;63163;55.630;37.594;2023-05-19T02:26:51;1.5;;;1.2;;
74644;SDS011;63163;55.630;37.594;2023-05-19T02:27:53;3.0;;;1.3;;
74644;SDS011;63163;55.630;37.594;2023-05-19T02:28:53;2.6;;;1.5;;
74644;SDS011;63163;55.630;37.594;2023-05-19T02:29:54;2.9;;;1.6;;
74644;SDS011;63163;55.630;37.594;2023-05-19T02:30:55;3.1;;;1.7;;
74644;SDS011;63163;55.630;37.594;2023-05-19T02:31:55;3.3;;;1.7;;
74644;SDS011;63163;55.630;37.594;2023-05-19T02:32:56;1.9;;;1.5;;
74644;SDS011;63163;55.630;37.594;2023-05-19T02:33:56;3.4;;;2.2;;
74644;SDS011;63163;55.630;37.594;2023-05-19T02:34:57;3.6;;;2.0;;
74644;SDS011;63163;55.630;37.594;2023-05-19T02:35:58;3.8;;;1.9;;
74644;SDS011;63163;55.630;37.594;2023-05-19T02:36:58;4.3;;;1.7;;
74644;SDS011;63163;55.630;37.594;2023-05-19T02:37:59;2.5;;;1.9;;
74644;SDS011;63163;55.630;37.594;2023-05-19T02:38:59;3.0;;;1.9;;
74644;SDS011;63163;55.630;37.594;2023-05-19T02:40:01;3.8;;;1.9;;
74644;SDS011;63163;55.630;37.594;2023-05-19T02:41:02;4.0;;;1.8;;
74644;SDS011;63163;55.630;37.594;2023-05-19T02:42:03;4.5;;;2.0;;
74644;SDS011;63163;55.630;37.594;2023-05-19T02:43:03;3.2;;;2.2;;
74644;SDS011;63163;55.630;37.594;2023-05-19T02:44:04;3.2;;;2.0;;
74644;SDS011;63163;55.630;37.594;2023-05-19T02:45:05;6.3;;;2.4;;
74644;SDS011;63163;55.630;37.594;2023-05-19T02:46:06;6.2;;;2.0;;
74644;SDS011;63163;55.630;37.594;2023-05-19T02:47:07;2.9;;;2.0;;
74644;SDS011;63163;55.630;37.594;2023-05-19T02:48:07;2.7;;;2.0;;
74644;SDS011;63163;55.630;37.594;2023-05-19T02:49:08;4.3;;;1.9;;
74644;SDS011;63163;55.630;37.594;2023-05-19T02:50:08;4.7;;;2.2;;
74644;SDS011;63163;55.630;37.594;2023-05-19T02:51:09;4.2;;;2.1;;
74644;SDS011;63163;55.630;37.594;2023-05-19T02:52:09;3.6;;;2.0;;
74644;SDS011;63163;55.630;37.594;2023-05-19T02:53:11;3.2;;;2.0;;
74644;SDS011;63163;55.630;37.594;2023-05-19T02:54:12;3.3;;;1.9;;
74644;SDS011;63163;55.630;37.594;2023-05-19T02:55:12;4.2;;;1.9;;
74644;SDS011;63163;55.630;37.594;2023-05-19T02:56:16;5.1;;;2.1;;
74644;SDS011;63163;55.630;37.594;2023-05-19T02:57:16;4.7;;;2.1;;
74644;SDS011;63163;55.630;37.594;2023-05-19T02:58:17;4.9;;;1.7;;
74644;SDS011;63163;55.630;37.594;2023-05-19T02:59:18;3.2;;;1.8;;
74644;SDS011;63163;55.630;37.594;2023-05-19T03:00:19;3.5;;;2.0;;
74644;SDS011;63163;55.630;37.594;2023-05-19T03:01:19;3.3;;;1.6;;
74644;SDS011;63163;55.630;37.594;2023-05-19T03:02:21;4.4;;;2.0;;
74644;SDS011;63163;55.630;37.594;2023-05-19T03:03:21;3.9;;;2.1;;
74644;SDS011;63163;55.630;37.594;2023-05-19T03:04:22;3.8;;;2.0;;
74644;SDS011;63163;55.630;37.594;2023-05-19T03:05:23;3.0;;;1.7;;
74644;SDS011;63163;55.630;37.594;2023-05-19T03:06:23;3.3;;;1.9;;
74644;SDS011;63163;55.630;37.594;2023-05-19T03:07:24;4.2;;;2.0;;
74644;SDS011;63163;55.630;37.594;2023-05-19T03:08:26;4.3;;;2.0;;
74644;SDS011;63163;55.630;37.594;2023-05-19T03:09:26;3.7;;;2.0;;
74644;SDS011;63163;55.630;37.594;2023-05-19T03:10:27;5.2;;;2.0;;
74644;SDS011;63163;55.630;37.594;2023-05-19T03:11:27;4.2;;;2.0;;
74644;SDS011;63163;55.630;37.594;2023-05-19T03:12:30;6.5;;;2.2;;
74644;SDS011;63163;55.630;37.594;2023-05-19T03:13:31;4.5;;;2.3;;
74644;SDS011;63163;55.630;37.594;2023-05-19T03:14:32;3.6;;;1.9;;
74644;SDS011;63163;55.630;37.594;2023-05-19T03:15:33;5.3;;;2.1;;
74644;SDS011;63163;55.630;37.594;2023-05-19T03:16:34;4.1;;;2.0;;
74644;SDS011;63163;55.630;37.594;2023-05-19T03:17:35;4.5;;;2.0;;
74644;SDS011;63163;55.630;37.594;2023-05-19T03:18:36;5.0;;;2.1;;
74644;SDS011;63163;55.630;37.594;2023-05-19T03:19:37;3.6;;;1.9;;
74644;SDS011;63163;55.630;37.594;2023-05-19T03:20:37;3.6;;;2.0;;
74644;SDS011;63163;55.630;37.594;2023-05-19T03:21:38;3.5;;;2.1;;
74644;SDS011;63163;55.630;37.594;2023-05-19T03:22:38;3.7;;;2.0;;
74644;SDS011;63163;55.630;37.594;2023-05-19T03:23:39;3.5;;;1.9;;
74644;SDS011;63163;55.630;37.594;2023-05-19T03:24:40;5.3;;;1.9;;
74644;SDS011;63163;55.630;37.594;2023-05-19T03:25:41;3.1;;;1.9;;
74644;SDS011;63163;55.630;37.594;2023-05-19T03:26:41;4.2;;;1.9;;
74644;SDS011;63163;55.630;37.594;2023-05-19T03:27:42;5.5;;;2.0;;
74644;SDS011;63163;55.630;37.594;2023-05-19T03:28:43;3.3;;;2.0;;
74644;SDS011;63163;55.630;37.594;2023-05-19T03:29:43;4.7;;;1.9;;
74644;SDS011;63163;55.630;37.594;2023-05-19T03:30:44;3.8;;;2.0;;
74644;SDS011;63163;55.630;37.594;2023-05-19T03:31:45;4.8;;;2.1;;
74644;SDS011;63163;55.630;37.594;2023-05-19T03:32:45;4.0;;;2.0;;
74644;SDS011;63163;55.630;37.594;2023-05-19T03:33:46;3.6;;;1.9;;
74644;SDS011;63163;55.630;37.594;2023-05-19T03:34:46;4.0;;;1.9;;
74644;SDS011;63163;55.630;37.594;2023-05-19T03:35:47;3.8;;;1.9;;
74644;SDS011;63163;55.630;37.594;2023-05-19T03:36:47;4.0;;;2.0;;
74644;SDS011;63163;55.630;37.594;2023-05-19T03:37:49;3.2;;;1.9;;
74644;SDS011;63163;55.630;37.594;2023-05-19T03:38:50;3.6;;;2.0;;
74644;SDS011;63163;55.630;37.594;2023-05-19T03:39:50;4.4;;;2.0;;
74644;SDS011;63163;55.630;37.594;2023-05-19T03:40:51;4.9;;;2.1;;
74644;SDS011;63163;55.630;37.594;2023-05-19T03:41:53;3.7;;;1.9;;
74644;SDS011;63163;55.630;37.594;2023-05-19T03:42:53;5.0;;;1.8;;
74644;SDS011;63163;55.630;37.594;2023-05-19T03:43:54;2.7;;;1.9;;
74644;SDS011;63163;55.630;37.594;2023-05-19T03:44:54;4.3;;;1.9;;
74644;SDS011;63163;55.630;37.594;2023-05-19T03:45:55;3.1;;;1.7;;
74644;SDS011;63163;55.630;37.594;2023-05-19T03:46:55;3.2;;;1.8;;
74644;SDS011;63163;55.630;37.594;2023-05-19T03:47:56;4.8;;;2.2;;
74644;SDS011;63163;55.630;37.594;2023-05-19T03:48:56;4.2;;;2.0;;
74644;SDS011;63163;55.630;37.594;2023-05-19T03:49:57;3.5;;;1.6;;
74644;SDS011;63163;55.630;37.594;2023-05-19T03:50:58;3.2;;;1.9;;
74644;SDS011;63163;55.630;37.594;2023-05-19T03:51:58;6.1;;;1.9;;
74644;SDS011;63163;55.630;37.594;2023-05-19T03:52:59;4.0;;;1.9;;
74644;SDS011;63163;55.630;37.594;2023-05-19T03:54:00;3.9;;;2.0;;
74644;SDS011;63163;55.630;37.594;2023-05-19T03:55:00;3.4;;;1.7;;
74644;SDS011;63163;55.630;37.594;2023-05-19T03:56:01;4.2;;;2.0;;
74644;SDS011;63163;55.630;37.594;2023-05-19T03:57:01;3.6;;;1.9;;
74644;SDS011;63163;55.630;37.594;2023-05-19T03:58:02;3.2;;;1.8;;
74644;SDS011;63163;55.630;37.594;2023-05-19T03:59:03;4.2;;;2.2;;
74644;SDS011;63163;55.630;37.594;2023-05-19T04:00:06;5.1;;;2.1;;
74644;SDS011;63163;55.630;37.594;2023-05-19T04:01:06;5.2;;;2.0;;
74644;SDS011;63163;55.630;37.594;2023-05-19T04:02:07;6.3;;;2.0;;
74644;SDS011;63163;55.630;37.594;2023-05-19T04:03:08;6.8;;;2.2;;
74644;SDS011;63163;55.630;37.594;2023-05-19T04:04:08;6.3;;;2.2;;
74644;SDS011;63163;55.630;37.594;2023-05-19T04:05:09;3.9;;;2.1;;
74644;SDS011;63163;55.630;37.594;2023-05-19T04:06:10;4.4;;;2.4;;
74644;SDS011;63163;55.630;37.594;2023-05-19T04:07:10;5.2;;;2.0;;
74644;SDS011;63163;55.630;37.594;2023-05-19T04:08:11;4.6;;;2.1;;
74644;SDS011;63163;55.630;37.594;2023-05-19T04:09:12;3.5;;;2.0;;
74644;SDS011;63163;55.630;37.594;2023-05-19T04:10:13;7.3;;;2.6;;
74644;SDS011;63163;55.630;37.594;2023-05-19T04:11:13;4.4;;;2.2;;
74644;SDS011;63163;55.630;37.594;2023-05-19T04:12:14;5.5;;;2.2;;
74644;SDS011;63163;55.630;37.594;2023-05-19T04:13:15;4.0;;;2.2;;
74644;SDS011;63163;55.630;37.594;2023-05-19T04:14:15;5.3;;;2.4;;
74644;SDS011;63163;55.630;37.594;2023-05-19T04:15:16;5.0;;;2.5;;
74644;SDS011;63163;55.630;37.594;2023-05-19T04:16:16;4.8;;;2.7;;
74644;SDS011;63163;55.630;37.594;2023-05-19T04:17:17;5.5;;;2.4;;
74644;SDS011;63163;55.630;37.594;2023-05-19T04:18:18;4.6;;;2.3;;
74644;SDS011;63163;55.630;37.594;2023-05-19T04:19:18;4.1;;;2.3;;
74644;SDS011;63163;55.630;37.594;2023-05-19T04:20:19;5.4;;;2.4;;
74644;SDS011;63163;55.630;37.594;2023-05-19T04:21:20;4.9;;;2.6;;
74644;SDS011;63163;55.630;37.594;2023-05-19T04:22:21;7.0;;;2.7;;
74644;SDS011;63163;55.630;37.594;2023-05-19T04:23:22;5.6;;;2.5;;
74644;SDS011;63163;55.630;37.594;2023-05-19T04:24:23;5.9;;;2.8;;
74644;SDS011;63163;55.630;37.594;2023-05-19T04:25:23;5.5;;;2.9;;
74644;SDS011;63163;55.630;37.594;2023-05-19T04:26:27;5.4;;;2.3;;
74644;SDS011;63163;55.630;37.594;2023-05-19T04:27:30;4.1;;;2.3;;
74644;SDS011;63163;55.630;37.594;2023-05-19T04:28:31;6.2;;;2.6;;
74644;SDS011;63163;55.630;37.594;2023-05-19T04:29:35;6.3;;;2.7;;
74644;SDS011;63163;55.630;37.594;2023-05-19T04:30:35;5.7;;;2.4;;
74644;SDS011;63163;55.630;37.594;2023-05-19T04:31:37;5.8;;;2.5;;
74644;SDS011;63163;55.630;37.594;2023-05-19T04:32:40;7.0;;;2.7;;
74644;SDS011;63163;55.630;37.594;2023-05-19T04:33:40;6.9;;;2.6;;
74644;SDS011;63163;55.630;37.594;2023-05-19T04:34:41;5.8;;;2.6;;
74644;SDS011;63163;55.630;37.594;2023-05-19T04:35:44;4.9;;;2.5;;
74644;SDS011;63163;55.630;37.594;2023-05-19T04:36:45;4.9;;;2.6;;
74644;SDS011;63163;55.630;37.594;2023-05-19T04:37:45;4.8;;;2.5;;
74644;SDS011;63163;55.630;37.594;2023-05-19T04:38:46;5.0;;;2.6;;
74644;SDS011;63163;55.630;37.594;2023-05-19T04:39:47;5.6;;;2.7;;
74644;SDS011;63163;55.630;37.594;2023-05-19T04:40:47;6.1;;;2.6;;
74644;SDS011;63163;55.630;37.594;2023-05-19T04:41:49;7.1;;;2.9;;
74644;SDS011;63163;55.630;37.594;2023-05-19T04:42:50;5.7;;;2.6;;
74644;SDS011;63163;55.630;37.594;2023-05-19T04:43:51;4.4;;;2.5;;
74644;SDS011;63163;55.630;37.594;2023-05-19T04:44:52;5.5;;;2.7;;
74644;SDS011;63163;55.630;37.594;2023-05-19T04:45:52;4.9;;;2.5;;
74644;SDS011;63163;55.630;37.594;2023-05-19T04:46:53;5.7;;;2.8;;
74644;SDS011;63163;55.630;37.594;2023-05-19T04:47:56;5.2;;;2.7;;
74644;SDS011;63163;55.630;37.594;2023-05-19T04:48:57;5.5;;;2.6;;
74644;SDS011;63163;55.630;37.594;2023-05-19T04:50:00;6.0;;;2.8;;
74644;SDS011;63163;55.630;37.594;2023-05-19T04:51:00;6.0;;;2.7;;
74644;SDS011;63163;55.630;37.594;2023-05-19T04:52:01;5.6;;;2.7;;
74644;SDS011;63163;55.630;37.594;2023-05-19T04:53:02;5.7;;;2.8;;
74644;SDS011;63163;55.630;37.594;2023-05-19T04:54:03;6.0;;;2.9;;
74644;SDS011;63163;55.630;37.594;2023-05-19T04:55:04;7.3;;;2.7;;
74644;SDS011;63163;55.630;37.594;2023-05-19T04:56:04;5.7;;;2.9;;
74644;SDS011;63163;55.630;37.594;2023-05-19T04:57:05;6.2;;;3.0;;
74644;SDS011;63163;55.630;37.594;2023-05-19T04:58:06;6.4;;;3.0;;
74644;SDS011;63163;55.630;37.594;2023-05-19T04:59:07;5.1;;;2.7;;
74644;SDS011;63163;55.630;37.594;2023-05-19T05:00:09;6.6;;;3.2;;
74644;SDS011;63163;55.630;37.594;2023-05-19T05:01:13;5.4;;;3.1;;
74644;SDS011;63163;55.630;37.594;2023-05-19T05:02:14;5.9;;;3.0;;
74644;SDS011;63163;55.630;37.594;2023-05-19T05:03:15;7.9;;;2.9;;
74644;SDS011;63163;55.630;37.594;2023-05-19T05:04:16;6.3;;;2.9;;
74644;SDS011;63163;55.630;37.594;2023-05-19T05:05:17;5.1;;;2.9;;
74644;SDS011;63163;55.630;37.594;2023-05-19T05:06:17;6.9;;;3.0;;
74644;SDS011;63163;55.630;37.594;2023-05-19T05:07:18;6.0;;;2.8;;
74644;SDS011;63163;55.630;37.594;2023-05-19T05:08:19;6.1;;;3.1;;
74644;SDS011;63163;55.630;37.594;2023-05-19T05:09:22;5.1;;;3.1;;
74644;SDS011;63163;55.630;37.594;2023-05-19T05:10:23;5.7;;;2.9;;
74644;SDS011;63163;55.630;37.594;2023-05-19T05:11:23;5.4;;;3.0;;
74644;SDS011;63163;55.630;37.594;2023-05-19T05:12:25;6.5;;;3.5;;
74644;SDS011;63163;55.630;37.594;2023-05-19T05:13:26;6.7;;;3.3;;
74644;SDS011;63163;55.630;37.594;2023-05-19T05:14:27;6.6;;;3.1;;
74644;SDS011;63163;55.630;37.594;2023-05-19T05:15:27;9.1;;;3.1;;
74644;SDS011;63163;55.630;37.594;2023-05-19T05:16:29;7.4;;;3.2;;
74644;SDS011;63163;55.630;37.594;2023-05-19T05:17:30;6.6;;;3.2;;
74644;SDS011;63163;55.630;37.594;2023-05-19T05:18:31;7.2;;;3.2;;
74644;SDS011;63163;55.630;37.594;2023-05-19T05:19:32;6.0;;;3.3;;
74644;SDS011;63163;55.630;37.594;2023-05-19T05:20:33;6.9;;;3.4;;
74644;SDS011;63163;55.630;37.594;2023-05-19T05:21:33;4.7;;;2.9;;
74644;SDS011;63163;55.630;37.594;2023-05-19T05:22:34;6.1;;;3.3;;
74644;SDS011;63163;55.630;37.594;2023-05-19T05:23:35;6.9;;;3.3;;
74644;SDS011;63163;55.630;37.594;2023-05-19T05:24:36;6.9;;;3.5;;
74644;SDS011;63163;55.630;37.594;2023-05-19T05:25:37;5.6;;;3.2;;
74644;SDS011;63163;55.630;37.594;2023-05-19T05:26:38;6.1;;;3.5;;
74644;SDS011;63163;55.630;37.594;2023-05-19T05:27:39;7.8;;;3.7;;
74644;SDS011;63163;55.630;37.594;2023-05-19T05:28:40;5.7;;;3.7;;
74644;SDS011;63163;55.630;37.594;2023-05-19T05:29:40;6.4;;;3.4;;
74644;SDS011;63163;55.630;37.594;2023-05-19T05:30:41;6.3;;;3.4;;
74644;SDS011;63163;55.630;37.594;2023-05-19T05:31:42;7.7;;;3.5;;
74644;SDS011;63163;55.630;37.594;2023-05-19T05:32:43;10.8;;;3.6;;
74644;SDS011;63163;55.630;37.594;2023-05-19T05:33:44;5.1;;;3.3;;
74644;SDS011;63163;55.630;37.594;2023-05-19T05:34:45;7.3;;;3.5;;
74644;SDS011;63163;55.630;37.594;2023-05-19T05:35:45;6.0;;;3.4;;
74644;SDS011;63163;55.630;37.594;2023-05-19T05:36:46;5.8;;;3.4;;
74644;SDS011;63163;55.630;37.594;2023-05-19T05:37:46;7.9;;;3.6;;
74644;SDS011;63163;55.630;37.594;2023-05-19T05:38:47;5.6;;;3.2;;
74644;SDS011;63163;55.630;37.594;2023-05-19T05:39:48;6.4;;;3.6;;
74644;SDS011;63163;55.630;37.594;2023-05-19T05:40:48;6.1;;;3.7;;
74644;SDS011;63163;55.630;37.594;2023-05-19T05:41:49;7.0;;;3.8;;
74644;SDS011;63163;55.630;37.594;2023-05-19T05:42:49;7.8;;;4.0;;
74644;SDS011;63163;55.630;37.594;2023-05-19T05:43:50;7.3;;;3.8;;
74644;SDS011;63163;55.630;37.594;2023-05-19T05:44:51;6.5;;;3.8;;
74644;SDS011;63163;55.630;37.594;2023-05-19T05:45:51;6.9;;;4.0;;
74644;SDS011;63163;55.630;37.594;2023-05-19T05:46:52;7.7;;;3.8;;
74644;SDS011;63163;55.630;37.594;2023-05-19T05:47:52;7.7;;;4.2;;
74644;SDS011;63163;55.630;37.594;2023-05-19T05:48:53;7.2;;;4.1;;
74644;SDS011;63163;55.630;37.594;2023-05-19T05:49:54;7.1;;;3.9;;
74644;SDS011;63163;55.630;37.594;2023-05-19T05:50:55;7.1;;;3.8;;
74644;SDS011;63163;55.630;37.594;2023-05-19T05:51:56;7.6;;;4.1;;
74644;SDS011;63163;55.630;37.594;2023-05-19T05:52:57;7.5;;;4.1;;
74644;SDS011;63163;55.630;37.594;2023-05-19T05:54:00;6.0;;;3.7;;
74644;SDS011;63163;55.630;37.594;2023-05-19T05:55:02;8.1;;;3.9;;
74644;SDS011;63163;55.630;37.594;2023-05-19T05:56:03;6.8;;;4.0;;
74644;SDS011;63163;55.630;37.594;2023-05-19T05:57:04;5.7;;;3.9;;
74644;SDS011;63163;55.630;37.594;2023-05-19T05:58:04;8.0;;;4.1;;
74644;SDS011;63163;55.630;37.594;2023-05-19T05:59:05;7.2;;;4.2;;
74644;SDS011;63163;55.630;37.594;2023-05-19T06:00:06;9.7;;;4.1;;
74644;SDS011;63163;55.630;37.594;2023-05-19T06:01:13;7.4;;;3.6;;
74644;SDS011;63163;55.630;37.594;2023-05-19T06:02:16;7.4;;;4.0;;
74644;SDS011;63163;55.630;37.594;2023-05-19T06:03:16;9.0;;;4.4;;
74644;SDS011;63163;55.630;37.594;2023-05-19T06:04:17;8.1;;;4.1;;
74644;SDS011;63163;55.630;37.594;2023-05-19T06:05:18;5.9;;;3.8;;
74644;SDS011;63163;55.630;37.594;2023-05-19T06:06:18;6.4;;;3.7;;
74644;SDS011;63163;55.630;37.594;2023-05-19T06:07:19;6.5;;;3.6;;
74644;SDS011;63163;55.630;37.594;2023-05-19T06:08:20;8.3;;;4.2;;
74644;SDS011;63163;55.630;37.594;2023-05-19T06:09:21;7.1;;;4.0;;
74644;SDS011;63163;55.630;37.594;2023-05-19T06:10:21;7.8;;;4.9;;
74644;SDS011;63163;55.630;37.594;2023-05-19T06:11:22;6.6;;;4.2;;
74644;SDS011;63163;55.630;37.594;2023-05-19T06:12:24;6.5;;;4.2;;
74644;SDS011;63163;55.630;37.594;2023-05-19T06:13:26;10.7;;;4.5;;
74644;SDS011;63163;55.630;37.594;2023-05-19T06:14:27;6.9;;;4.4;;
74644;SDS011;63163;55.630;37.594;2023-05-19T06:15:27;9.4;;;4.5;;